createdAt,value
2018-05-02T00:02:15.788Z,100694
2018-05-02T00:04:44.217Z,100705
2018-05-02T00:07:12.321Z,100705
2018-05-02T00:09:40.520Z,100709
2018-05-02T00:12:08.803Z,100698
2018-05-02T00:14:36.929Z,100692
2018-05-02T00:17:05.027Z,100687
2018-05-02T00:19:33.138Z,100701
2018-05-02T00:22:01.630Z,100693
2018-05-02T00:24:29.698Z,100693
2018-05-02T00:26:58.149Z,100687
2018-05-02T00:29:26.847Z,100691
2018-05-02T00:31:55.008Z,100682
2018-05-02T00:34:23.411Z,100690
2018-05-02T00:36:51.657Z,100698
2018-05-02T00:39:19.991Z,100699
2018-05-02T00:41:48.074Z,100693
2018-05-02T00:44:16.403Z,100702
2018-05-02T00:46:44.869Z,100705
2018-05-02T00:49:17.794Z,100714
2018-05-02T00:51:45.908Z,100706
2018-05-02T00:54:14.260Z,100696
2018-05-02T00:56:42.695Z,100694
2018-05-02T00:59:10.780Z,100701
2018-05-02T01:01:39.120Z,100696
2018-05-02T01:04:07.511Z,100704
2018-05-02T01:06:35.894Z,100708
2018-05-02T01:09:04.161Z,100702
2018-05-02T01:11:32.461Z,100696
2018-05-02T01:14:00.591Z,100705
2018-05-02T01:16:28.828Z,100702
2018-05-02T01:18:57.174Z,100694
2018-05-02T01:21:25.495Z,100703
2018-05-02T01:23:53.590Z,100690
2018-05-02T01:26:21.748Z,100702
2018-05-02T01:28:50.069Z,100702
2018-05-02T01:31:18.149Z,100702
2018-05-02T01:33:48.006Z,100707
2018-05-02T01:36:16.344Z,100706
2018-05-02T01:38:44.711Z,100709
2018-05-02T01:41:12.897Z,100713
2018-05-02T01:43:41.194Z,100723
2018-05-02T01:46:09.397Z,100719
2018-05-02T01:48:37.617Z,100719
2018-05-02T01:51:06.076Z,100729
2018-05-02T01:53:34.403Z,100727
2018-05-02T01:56:02.836Z,100732
2018-05-02T01:58:31.174Z,100740
2018-05-02T02:00:59.607Z,100732
2018-05-02T02:03:27.712Z,100724
2018-05-02T02:05:56.044Z,100727
2018-05-02T02:08:24.170Z,100721
2018-05-02T02:10:52.274Z,100725
2018-05-02T02:13:20.486Z,100722
2018-05-02T02:15:48.632Z,100728
2018-05-02T02:18:17.008Z,100733
2018-05-02T02:20:45.169Z,100724
2018-05-02T02:23:13.465Z,100726
2018-05-02T02:25:41.763Z,100720
2018-05-02T02:28:09.916Z,100729
2018-05-02T02:30:38.050Z,100729
2018-05-02T02:33:06.289Z,100733
2018-05-02T02:35:34.407Z,100725
2018-05-02T02:38:02.552Z,100711
2018-05-02T02:40:30.698Z,100716
2018-05-02T02:42:59.275Z,100720
2018-05-02T02:45:27.385Z,100720
2018-05-02T02:47:55.705Z,100709
2018-05-02T02:50:24.141Z,100707
2018-05-02T02:52:52.687Z,100710
2018-05-02T02:55:21.010Z,100700
2018-05-02T02:57:49.523Z,100708
2018-05-02T03:00:17.620Z,100694
2018-05-02T03:02:45.753Z,100703
2018-05-02T03:05:14.046Z,100705
2018-05-02T03:07:42.321Z,100692
2018-05-02T03:10:10.430Z,100692
2018-05-02T03:12:38.564Z,100686
2018-05-02T03:15:06.658Z,100688
2018-05-02T03:17:34.967Z,100683
2018-05-02T03:20:03.072Z,100690
2018-05-02T03:22:31.362Z,100683
2018-05-02T03:24:59.499Z,100687
2018-05-02T03:27:27.750Z,100689
2018-05-02T03:29:55.905Z,100678
2018-05-02T03:32:23.994Z,100683
2018-05-02T03:34:52.261Z,100676
2018-05-02T03:37:20.349Z,100684
2018-05-02T03:39:48.422Z,100680
2018-05-02T03:42:16.498Z,100681
2018-05-02T03:44:44.604Z,100678
2018-05-02T03:47:12.804Z,100683
2018-05-02T03:49:41.094Z,100674
2018-05-02T03:52:09.543Z,100680
2018-05-02T03:54:37.970Z,100681
2018-05-02T03:57:06.337Z,100676
2018-05-02T03:59:46.366Z,100682
2018-05-02T04:02:26.143Z,100691
2018-05-02T04:05:06.311Z,100682
2018-05-02T04:07:34.960Z,100685
2018-05-02T04:10:03.121Z,100691
2018-05-02T04:12:31.696Z,100695
2018-05-02T04:15:00.479Z,100695
2018-05-02T04:17:28.781Z,100700
2018-05-02T04:19:57.813Z,100707
2018-05-02T04:22:27.051Z,100713
2018-05-02T04:24:55.824Z,100727
2018-05-02T04:27:24.745Z,100720
2018-05-02T04:29:53.343Z,100714
2018-05-02T04:32:22.162Z,100714
2018-05-02T04:34:51.315Z,100730
2018-05-02T04:37:19.978Z,100720
2018-05-02T04:39:48.247Z,100718
2018-05-02T04:42:16.917Z,100724
2018-05-02T04:44:45.741Z,100717
2018-05-02T04:47:15.152Z,100722
2018-05-02T04:49:43.354Z,100716
2018-05-02T04:52:11.985Z,100726
2018-05-02T04:54:40.694Z,100715
2018-05-02T04:57:09.333Z,100730
2018-05-02T04:59:38.162Z,100722
2018-05-02T05:02:07.221Z,100732
2018-05-02T05:04:35.942Z,100725
2018-05-02T05:07:04.534Z,100737
2018-05-02T05:09:33.447Z,100735
2018-05-02T05:12:01.948Z,100743
2018-05-02T05:14:30.352Z,100747
2018-05-02T05:16:58.625Z,100746
2018-05-02T05:19:26.992Z,100739
2018-05-02T05:21:56.008Z,100740
2018-05-02T05:24:24.574Z,100735
2018-05-02T05:26:53.344Z,100736
2018-05-02T05:29:21.930Z,100742
2018-05-02T05:31:50.639Z,100745
2018-05-02T05:34:19.197Z,100751
2018-05-02T05:36:48.386Z,100752
2018-05-02T05:39:17.273Z,100744
2018-05-02T05:41:45.797Z,100753
2018-05-02T05:44:14.159Z,100760
2018-05-02T05:46:42.532Z,100759
2018-05-02T05:49:10.712Z,100748
2018-05-02T05:51:39.004Z,100746
2018-05-02T05:54:07.877Z,100747
2018-05-02T05:56:36.236Z,100755
2018-05-02T05:59:05.077Z,100741
2018-05-02T06:01:33.670Z,100750
2018-05-02T06:04:02.172Z,100741
2018-05-02T06:06:30.810Z,100742
2018-05-02T06:08:59.403Z,100741
2018-05-02T06:11:28.391Z,100739
2018-05-02T06:13:56.924Z,100741
2018-05-02T06:16:25.860Z,100730
2018-05-02T06:18:54.109Z,100749
2018-05-02T06:21:22.516Z,100737
2018-05-02T06:23:50.905Z,100738
2018-05-02T06:26:20.908Z,100748
2018-05-02T06:28:49.901Z,100746
2018-05-02T06:31:18.285Z,100744
2018-05-02T06:33:47.061Z,100738
2018-05-02T06:36:15.957Z,100741
2018-05-02T06:38:44.587Z,100753
2018-05-02T06:41:13.119Z,100740
2018-05-02T06:43:41.725Z,100742
2018-05-02T06:46:10.696Z,100741
2018-05-02T06:48:39.230Z,100740
2018-05-02T06:51:07.923Z,100740
2018-05-02T06:53:36.312Z,100745
2018-05-02T06:56:04.729Z,100735
2018-05-02T06:58:32.963Z,100735
2018-05-02T07:01:01.317Z,100742
2018-05-02T07:03:29.690Z,100765
2018-05-02T07:05:58.258Z,100738
2018-05-02T07:08:27.313Z,100746
2018-05-02T07:10:56.154Z,100744
2018-05-02T07:13:24.672Z,100734
2018-05-02T07:15:53.398Z,100736
2018-05-02T07:18:22.815Z,100741
2018-05-02T07:20:51.365Z,100733
2018-05-02T07:23:19.769Z,100731
2018-05-02T07:25:48.670Z,100740
2018-05-02T07:28:17.921Z,100741
2018-05-02T07:30:46.495Z,100738
2018-05-02T07:33:15.246Z,100743
2018-05-02T07:35:43.873Z,100735
2018-05-02T07:38:12.924Z,100731
2018-05-02T07:40:41.938Z,100734
2018-05-02T07:43:10.942Z,100740
2018-05-02T07:45:39.830Z,100745
2018-05-02T07:48:08.617Z,100748
2018-05-02T07:50:37.197Z,100751
2018-05-02T07:53:05.925Z,100742
2018-05-02T07:55:34.575Z,100752
2018-05-02T07:58:03.489Z,100746
2018-05-02T08:00:32.306Z,100748
2018-05-02T08:03:01.071Z,100748
2018-05-02T08:05:29.632Z,100741
2018-05-02T08:07:58.308Z,100749
2018-05-02T08:10:27.111Z,100754
2018-05-02T08:12:55.723Z,100757
2018-05-02T08:15:24.035Z,100768
2018-05-02T08:17:52.638Z,100760
2018-05-02T08:20:21.213Z,100763
2018-05-02T08:22:49.877Z,100756
2018-05-02T08:25:18.428Z,100764
2018-05-02T08:27:47.339Z,100755
2018-05-02T08:30:15.855Z,100754
2018-05-02T08:32:44.677Z,100739
2018-05-02T08:35:13.192Z,100750
2018-05-02T08:37:41.509Z,100753
2018-05-02T08:40:09.822Z,100742
2018-05-02T08:42:38.439Z,100737
2018-05-02T08:45:07.183Z,100745
2018-05-02T08:47:35.689Z,100750
2018-05-02T08:50:04.260Z,100738
2018-05-02T08:52:32.690Z,100749
2018-05-02T08:55:00.886Z,100754
2018-05-02T08:57:29.464Z,100728
2018-05-02T08:59:57.832Z,100736
2018-05-02T09:02:26.512Z,100725
2018-05-02T09:04:54.673Z,100719
2018-05-02T09:07:23.049Z,100720
2018-05-02T09:09:51.177Z,100718
2018-05-02T09:12:19.388Z,100713
2018-05-02T09:14:47.580Z,100711
2018-05-02T09:17:15.772Z,100698
2018-05-02T09:19:44.421Z,100690
2018-05-02T09:22:12.875Z,100705
2018-05-02T09:24:42.169Z,100704
2018-05-02T09:27:11.429Z,100691
2018-05-02T09:29:39.622Z,100683
2018-05-02T09:32:07.869Z,100680
2018-05-02T09:34:36.150Z,100678
2018-05-02T09:37:04.425Z,100675
2018-05-02T09:39:32.776Z,100675
2018-05-02T09:42:00.918Z,100668
2018-05-02T09:44:29.151Z,100662
2018-05-02T09:46:57.369Z,100661
2018-05-02T09:49:25.678Z,100673
2018-05-02T09:51:54.046Z,100662
2018-05-02T09:54:22.299Z,100655
2018-05-02T09:56:51.004Z,100643
2018-05-02T09:59:19.435Z,100639
2018-05-02T10:01:47.649Z,100633
2018-05-02T10:04:15.768Z,100640
2018-05-02T10:06:43.887Z,100638
2018-05-02T10:09:12.088Z,100646
2018-05-02T10:11:40.370Z,100632
2018-05-02T10:14:08.626Z,100633
2018-05-02T10:16:36.999Z,100626
2018-05-02T10:19:05.362Z,100620
2018-05-02T10:21:33.634Z,100620
2018-05-02T10:24:01.978Z,100617
2018-05-02T10:26:30.500Z,100632
2018-05-02T10:28:58.734Z,100625
2018-05-02T10:31:27.055Z,100613
2018-05-02T10:33:55.613Z,100618
2018-05-02T10:36:24.193Z,100618
2018-05-02T10:38:52.484Z,100618
2018-05-02T10:41:20.684Z,100611
2018-05-02T10:43:48.871Z,100602
2018-05-02T10:46:17.201Z,100610
2018-05-02T10:48:45.668Z,100605
2018-05-02T10:51:14.034Z,100608
2018-05-02T10:53:42.438Z,100598
2018-05-02T10:56:10.763Z,100602
2018-05-02T10:58:39.003Z,100606
2018-05-02T11:01:07.182Z,100611
2018-05-02T11:03:35.626Z,100599
2018-05-02T11:06:03.939Z,100593
2018-05-02T11:08:32.375Z,100586
2018-05-02T11:11:00.653Z,100588
2018-05-02T11:13:29.417Z,100597
2018-05-02T11:15:57.690Z,100583
2018-05-02T11:18:26.271Z,100604
2018-05-02T11:20:54.555Z,100583
2018-05-02T11:23:23.106Z,100589
2018-05-02T11:25:51.625Z,100576
2018-05-02T11:28:19.921Z,100588
2018-05-02T11:30:48.343Z,100594
2018-05-02T11:33:18.034Z,100583
2018-05-02T11:35:46.642Z,100580
2018-05-02T11:38:15.155Z,100582
2018-05-02T11:40:43.491Z,100568
2018-05-02T11:43:12.009Z,100576
2018-05-02T11:45:40.396Z,100565
2018-05-02T11:48:08.629Z,100562
2018-05-02T11:50:36.982Z,100571
2018-05-02T11:53:05.474Z,100572
2018-05-02T11:55:33.795Z,100567
2018-05-02T11:58:02.154Z,100558
2018-05-02T12:00:30.696Z,100564
2018-05-02T12:02:59.058Z,100560
2018-05-02T12:05:27.406Z,100560
2018-05-02T12:07:55.704Z,100555
2018-05-02T12:10:24.401Z,100555
2018-05-02T12:12:52.767Z,100554
2018-05-02T12:15:21.092Z,100557
2018-05-02T12:17:49.624Z,100558
2018-05-02T12:20:18.025Z,100566
2018-05-02T12:22:46.209Z,100557
2018-05-02T12:25:14.405Z,100560
2018-05-02T12:27:42.775Z,100558
2018-05-02T12:30:10.943Z,100546
2018-05-02T12:32:39.177Z,100538
2018-05-02T12:35:07.607Z,100540
2018-05-02T12:37:35.862Z,100540
2018-05-02T12:40:04.336Z,100545
2018-05-02T12:42:32.741Z,100535
2018-05-02T12:45:00.957Z,100538
2018-05-02T12:47:29.197Z,100537
2018-05-02T12:49:57.530Z,100522
2018-05-02T12:52:25.820Z,100519
2018-05-02T12:54:54.110Z,100507
2018-05-02T12:57:22.297Z,100523
2018-05-02T12:59:50.898Z,100515
2018-05-02T13:02:19.365Z,100504
2018-05-02T13:04:47.707Z,100508
2018-05-02T13:07:15.968Z,100502
2018-05-02T13:09:44.200Z,100502
2018-05-02T13:12:12.522Z,100502
2018-05-02T13:14:40.708Z,100495
2018-05-02T13:17:08.971Z,100492
2018-05-02T13:19:37.209Z,100501
2018-05-02T13:22:05.635Z,100491
2018-05-02T13:24:33.988Z,100489
2018-05-02T13:27:02.281Z,100498
2018-05-02T13:29:30.760Z,100484
2018-05-02T13:31:59.050Z,100476
2018-05-02T13:34:27.159Z,100459
2018-05-02T13:36:55.487Z,100458
2018-05-02T13:39:24.007Z,100465
2018-05-02T13:41:52.589Z,100460
2018-05-02T13:44:20.866Z,100455
2018-05-02T13:46:49.583Z,100448
2018-05-02T13:49:18.060Z,100447
2018-05-02T13:51:46.218Z,100447
2018-05-02T13:54:14.545Z,100448
2018-05-02T13:56:43.004Z,100449
2018-05-02T13:59:11.370Z,100446
2018-05-02T14:01:39.764Z,100440
2018-05-02T14:04:08.204Z,100439
2018-05-02T14:06:36.504Z,100432
2018-05-02T14:09:05.152Z,100430
2018-05-02T14:11:33.417Z,100425
2018-05-02T14:14:01.715Z,100424
2018-05-02T14:16:30.000Z,100422
2018-05-02T14:18:58.175Z,100429
2018-05-02T14:21:26.571Z,100417
2018-05-02T14:23:54.918Z,100419
2018-05-02T14:26:23.485Z,100418
2018-05-02T14:28:51.867Z,100409
2018-05-02T14:31:20.141Z,100408
2018-05-02T14:33:48.410Z,100414
2018-05-02T14:36:16.891Z,100413
2018-05-02T14:38:45.204Z,100405
2018-05-02T14:41:13.515Z,100400
2018-05-02T14:43:41.718Z,100402
2018-05-02T14:46:10.018Z,100400
2018-05-02T14:48:38.340Z,100398
2018-05-02T14:51:07.139Z,100407
2018-05-02T14:53:35.691Z,100395
2018-05-02T14:56:03.966Z,100391
2018-05-02T14:58:32.538Z,100395
2018-05-02T15:01:00.798Z,100380
2018-05-02T15:03:29.021Z,100393
2018-05-02T15:05:57.309Z,100394
2018-05-02T15:08:25.820Z,100376
2018-05-02T15:10:54.022Z,100389
2018-05-02T15:13:22.290Z,100376
2018-05-02T15:15:50.654Z,100377
2018-05-02T15:18:19.872Z,100387
2018-05-02T15:20:48.360Z,100380
2018-05-02T15:23:16.754Z,100381
2018-05-02T15:25:44.989Z,100384
2018-05-02T15:28:13.296Z,100398
2018-05-02T15:30:41.516Z,100386
2018-05-02T15:33:09.820Z,100393
2018-05-02T15:35:38.383Z,100389
2018-05-02T15:38:06.726Z,100391
2018-05-02T15:40:34.999Z,100382
2018-05-02T15:43:03.230Z,100390
2018-05-02T15:45:31.639Z,100402
2018-05-02T15:47:59.947Z,100397
2018-05-02T15:50:28.237Z,100394
2018-05-02T15:52:56.578Z,100388
2018-05-02T15:55:26.057Z,100396
2018-05-02T15:57:55.038Z,100392
2018-05-02T16:00:23.627Z,100388
2018-05-02T16:02:52.698Z,100393
2018-05-02T16:05:21.407Z,100396
2018-05-02T16:07:50.619Z,100386
2018-05-02T16:10:19.086Z,100388
2018-05-02T16:12:47.843Z,100391
2018-05-02T16:15:16.694Z,100382
2018-05-02T16:17:45.427Z,100380
2018-05-02T16:20:13.599Z,100380
2018-05-02T16:22:42.125Z,100381
2018-05-02T16:25:10.529Z,100380
2018-05-02T16:27:38.880Z,100381
2018-05-02T16:30:07.485Z,100382
2018-05-02T16:32:36.006Z,100374
2018-05-02T16:35:04.737Z,100380
2018-05-02T16:37:33.437Z,100376
2018-05-02T16:40:01.693Z,100379
2018-05-02T16:42:30.565Z,100380
2018-05-02T16:44:59.112Z,100377
2018-05-02T16:47:27.937Z,100388
2018-05-02T16:49:56.651Z,100377
2018-05-02T16:52:24.930Z,100379
2018-05-02T16:54:53.563Z,100390
2018-05-02T16:57:22.298Z,100370
2018-05-02T16:59:50.876Z,100366
2018-05-02T17:02:19.658Z,100358
2018-05-02T17:04:48.510Z,100361
2018-05-02T17:07:17.201Z,100360
2018-05-02T17:09:46.294Z,100367
2018-05-02T17:12:15.086Z,100367
2018-05-02T17:14:43.671Z,100369
2018-05-02T17:17:12.492Z,100361
2018-05-02T17:19:40.966Z,100361
2018-05-02T17:22:09.453Z,100357
2018-05-02T17:24:38.074Z,100363
2018-05-02T17:27:06.755Z,100365
2018-05-02T17:29:35.686Z,100369
2018-05-02T17:32:04.323Z,100364
2018-05-02T17:34:33.330Z,100359
2018-05-02T17:37:01.692Z,100376
2018-05-02T17:39:30.239Z,100368
2018-05-02T17:42:00.521Z,100369
2018-05-02T17:44:29.154Z,100365
2018-05-02T17:46:57.930Z,100366
2018-05-02T17:49:28.330Z,100367
2018-05-02T17:51:57.145Z,100379
2018-05-02T17:54:25.894Z,100372
2018-05-02T17:56:54.736Z,100376
2018-05-02T17:59:23.612Z,100374
2018-05-02T18:01:52.129Z,100376
2018-05-02T18:04:20.938Z,100368
2018-05-02T18:06:49.834Z,100367
2018-05-02T18:09:18.434Z,100367
2018-05-02T18:11:46.769Z,100372
2018-05-02T18:14:15.140Z,100367
2018-05-02T18:16:43.284Z,100369
2018-05-02T18:19:12.483Z,100362
2018-05-02T18:21:41.010Z,100368
2018-05-02T18:24:09.716Z,100362
2018-05-02T18:26:38.623Z,100363
2018-05-02T18:29:07.333Z,100362
2018-05-02T18:31:35.637Z,100365
2018-05-02T18:34:04.040Z,100362
2018-05-02T18:36:32.956Z,100363
2018-05-02T18:39:01.719Z,100349
2018-05-02T18:41:30.270Z,100354
2018-05-02T18:43:58.606Z,100353
2018-05-02T18:46:26.724Z,100366
2018-05-02T18:48:54.879Z,100369
2018-05-02T18:51:23.015Z,100379
2018-05-02T18:53:51.108Z,100376
2018-05-02T18:56:19.187Z,100380
2018-05-02T18:58:47.367Z,100382
2018-05-02T19:01:15.713Z,100377
2018-05-02T19:03:43.883Z,100374
2018-05-02T19:06:12.091Z,100376
2018-05-02T19:08:40.320Z,100380
2018-05-02T19:11:08.446Z,100380
2018-05-02T19:13:42.311Z,100385
2018-05-02T19:16:10.396Z,100386
2018-05-02T19:18:44.033Z,100386
2018-05-02T19:21:12.140Z,100384
2018-05-02T19:23:40.519Z,100380
2018-05-02T19:26:14.454Z,100394
2018-05-02T19:28:42.807Z,100394
2018-05-02T19:31:16.514Z,100390
2018-05-02T19:33:50.573Z,100384
2018-05-02T19:36:19.306Z,100385
2018-05-02T19:38:47.701Z,100382
2018-05-02T19:44:20.040Z,100380
2018-05-02T19:46:48.201Z,100387
2018-05-02T19:49:16.559Z,100388
2018-05-02T19:51:50.430Z,100381
2018-05-02T19:54:18.725Z,100386
2018-05-02T19:56:47.197Z,100387
2018-05-02T19:59:15.621Z,100378
2018-05-02T20:01:49.713Z,100376
2018-05-02T20:04:17.985Z,100372
2018-05-02T20:06:46.207Z,100382
2018-05-02T20:09:20.156Z,100381
2018-05-02T20:11:54.046Z,100365
2018-05-02T20:14:22.349Z,100364
2018-05-02T20:16:50.562Z,100353
2018-05-02T20:19:18.884Z,100365
2018-05-02T20:21:47.495Z,100359
2018-05-02T20:24:15.876Z,100358
2018-05-02T20:26:44.052Z,100346
2018-05-02T20:29:12.341Z,100363
2018-05-02T20:31:40.535Z,100361
2018-05-02T20:34:08.833Z,100364
2018-05-02T20:36:37.192Z,100371
2018-05-02T20:39:05.379Z,100358
2018-05-02T20:41:33.661Z,100367
2018-05-02T20:44:01.879Z,100365
2018-05-02T20:46:30.149Z,100364
2018-05-02T20:48:58.378Z,100360
2018-05-02T20:51:26.532Z,100360
2018-05-02T20:53:54.891Z,100356
2018-05-02T20:56:23.012Z,100358
2018-05-02T20:58:51.138Z,100357
2018-05-02T21:01:19.477Z,100363
2018-05-02T21:03:47.838Z,100361
2018-05-02T21:06:16.173Z,100363
2018-05-02T21:08:44.288Z,100367
2018-05-02T21:11:12.530Z,100374
2018-05-02T21:13:40.660Z,100364
2018-05-02T21:16:09.133Z,100368
2018-05-02T21:18:37.814Z,100365
2018-05-02T21:21:06.089Z,100365
2018-05-02T21:23:34.257Z,100370
2018-05-02T21:26:02.538Z,100359
2018-05-02T21:28:30.681Z,100359
2018-05-02T21:30:59.715Z,100363
2018-05-02T21:33:28.224Z,100353
2018-05-02T21:35:56.469Z,100363
2018-05-02T21:38:24.789Z,100352
2018-05-02T21:40:52.950Z,100368
2018-05-02T21:43:21.204Z,100363
2018-05-02T21:45:49.652Z,100364
2018-05-02T21:48:17.917Z,100372
2018-05-02T21:50:46.037Z,100369
2018-05-02T21:53:14.160Z,100366
2018-05-02T21:55:42.774Z,100374
2018-05-02T21:58:10.918Z,100366
2018-05-02T22:00:39.052Z,100361
2018-05-02T22:03:07.237Z,100379
2018-05-02T22:05:35.395Z,100364
2018-05-02T22:08:03.786Z,100368
2018-05-02T22:10:32.127Z,100375
2018-05-02T22:13:00.348Z,100372
2018-05-02T22:15:28.654Z,100375
2018-05-02T22:17:57.035Z,100364
2018-05-02T22:20:25.186Z,100362
2018-05-02T22:22:53.457Z,100370
2018-05-02T22:25:21.868Z,100370
2018-05-02T22:27:50.148Z,100363
2018-05-02T22:30:18.315Z,100362
2018-05-02T22:32:46.689Z,100363
2018-05-02T22:35:15.013Z,100360
2018-05-02T22:37:43.444Z,100363
2018-05-02T22:40:11.775Z,100365
2018-05-02T22:42:40.119Z,100362
2018-05-02T22:45:08.221Z,100360
2018-05-02T22:47:36.670Z,100351
2018-05-02T22:50:04.820Z,100354
2018-05-02T22:52:32.967Z,100352
2018-05-02T22:55:01.123Z,100348
2018-05-02T22:57:29.277Z,100352
2018-05-02T22:59:57.418Z,100357
2018-05-02T23:02:25.933Z,100354
2018-05-02T23:04:54.379Z,100357
2018-05-02T23:07:22.702Z,100353
2018-05-02T23:09:50.801Z,100356
2018-05-02T23:12:19.045Z,100338
2018-05-02T23:14:47.150Z,100352
2018-05-02T23:17:15.555Z,100356
2018-05-02T23:19:43.719Z,100336
2018-05-02T23:22:11.834Z,100343
2018-05-02T23:24:40.002Z,100335
2018-05-02T23:27:08.245Z,100336
2018-05-02T23:29:36.556Z,100335
2018-05-02T23:32:05.000Z,100330
2018-05-02T23:34:33.484Z,100335
2018-05-02T23:37:01.669Z,100321
2018-05-02T23:39:29.799Z,100325
2018-05-02T23:41:57.909Z,100317
2018-05-02T23:44:26.200Z,100322
2018-05-02T23:46:54.385Z,100326
2018-05-02T23:49:22.543Z,100326
2018-05-02T23:51:50.726Z,100320
2018-05-02T23:54:19.056Z,100322
2018-05-02T23:56:47.228Z,100319
2018-05-02T23:59:15.542Z,100325
